Avalon, Missouri
Current Conditions -  °F | °C
As of 11:15 AM on Saturday 22 Nov 2014 (Local Time) from KMHL Reporting Station
Overcast Overcast  
Wind Chill: 59°   Ceiling: 1500
Heat Index: 59°   Visibility: 10mi
Dew Point: 52°   Wind: 17mph
Humidity: 77%   Direction: 200°SSW
Pressure: 29.98"   Gusts: 24mph
Location:  39.66°N, 93.44°W
Report Text: KMHL 221715Z AUTO 20015G21KT 10SM OVC015 15/11 A2998 RMK AO2 LTG DSNT SW
Loading
Personal Weather Stations






























Interactive Weather Map New forecast layout! Learn more

10-Day Weather Forecast

Advertisements
Track Severe Weather on mobile